createdAt,value
2017-10-14T00:02:23.417Z,31.63
2017-10-14T00:04:49.606Z,30.03
2017-10-14T00:07:15.795Z,28.13
2017-10-14T00:09:42.017Z,26.37
2017-10-14T00:12:08.238Z,32.30
2017-10-14T00:14:34.437Z,34.43
2017-10-14T00:17:00.682Z,37.57
2017-10-14T00:19:26.974Z,31.10
2017-10-14T00:21:53.161Z,26.20
2017-10-14T00:24:19.366Z,25.23
2017-10-14T00:26:45.551Z,26.67
2017-10-14T00:29:11.786Z,34.57
2017-10-14T00:31:37.984Z,30.77
2017-10-14T00:34:04.202Z,26.70
2017-10-14T00:36:30.473Z,27.80
2017-10-14T00:38:56.710Z,31.93
2017-10-14T00:41:23.647Z,28.30
2017-10-14T00:43:49.945Z,28.43
2017-10-14T00:46:16.163Z,31.67
2017-10-14T00:48:42.381Z,29.03
2017-10-14T00:51:08.571Z,28.80
2017-10-14T00:53:35.560Z,28.63
2017-10-14T00:56:01.765Z,32.23
2017-10-14T00:58:27.997Z,31.30
2017-10-14T01:00:54.197Z,29.33
2017-10-14T01:03:21.229Z,26.97
2017-10-14T01:05:47.482Z,28.33
2017-10-14T01:08:14.437Z,27.40
2017-10-14T01:10:40.650Z,27.67
2017-10-14T01:13:07.605Z,27.67
2017-10-14T01:15:33.816Z,27.50
2017-10-14T01:18:00.037Z,25.20
2017-10-14T01:20:26.237Z,25.77
2017-10-14T01:22:52.453Z,36.67
2017-10-14T01:25:18.714Z,21.47
2017-10-14T01:27:44.960Z,26.70
2017-10-14T01:30:11.925Z,25.00
2017-10-14T01:32:38.137Z,26.50
2017-10-14T01:35:05.105Z,30.23
2017-10-14T01:37:31.309Z,26.90
2017-10-14T01:39:58.425Z,29.97
2017-10-14T01:42:24.618Z,35.50
2017-10-14T01:44:50.930Z,24.70
2017-10-14T01:47:17.130Z,23.77
2017-10-14T01:49:43.365Z,25.00
2017-10-14T01:52:09.560Z,24.20
2017-10-14T01:54:35.789Z,23.30
2017-10-14T01:57:02.747Z,21.57
2017-10-14T01:59:29.164Z,23.23
2017-10-14T02:01:55.357Z,23.33
2017-10-14T02:04:21.578Z,20.53
2017-10-14T02:06:47.770Z,20.63
2017-10-14T02:09:14.010Z,19.20
2017-10-14T02:11:40.227Z,20.10
2017-10-14T02:14:07.201Z,26.00
2017-10-14T02:16:34.134Z,21.27
2017-10-14T02:19:01.086Z,22.43
2017-10-14T02:21:28.009Z,21.00
2017-10-14T02:23:54.209Z,21.63
2017-10-14T02:26:20.496Z,19.10
2017-10-14T02:28:47.481Z,24.43
2017-10-14T02:31:14.406Z,24.27
2017-10-14T02:33:40.613Z,20.47
2017-10-14T02:36:07.566Z,22.83
2017-10-14T02:38:33.766Z,24.30
2017-10-14T02:41:00.694Z,20.17
2017-10-14T02:43:26.905Z,21.47
2017-10-14T02:45:53.104Z,26.00
2017-10-14T02:48:19.353Z,23.33
2017-10-14T02:50:45.573Z,18.60
2017-10-14T02:53:11.766Z,23.93
2017-10-14T02:55:38.717Z,24.17
2017-10-14T02:58:05.641Z,21.13
2017-10-14T03:00:31.849Z,20.97
2017-10-14T03:02:59.510Z,19.80
2017-10-14T03:05:25.848Z,32.63
2017-10-14T03:08:06.986Z,22.27
2017-10-14T03:10:33.198Z,23.70
2017-10-14T03:12:59.386Z,20.30
2017-10-14T03:15:25.684Z,17.13
2017-10-14T03:17:51.857Z,21.27
2017-10-14T03:20:18.824Z,17.07
2017-10-14T03:22:45.017Z,16.63
2017-10-14T03:25:11.233Z,22.63
2017-10-14T03:27:37.441Z,18.20
2017-10-14T03:30:03.659Z,18.40
2017-10-14T03:32:29.934Z,19.57
2017-10-14T03:34:56.147Z,19.63
2017-10-14T03:37:22.390Z,15.23
2017-10-14T03:39:48.597Z,20.80
2017-10-14T03:42:14.826Z,17.57
2017-10-14T03:44:41.037Z,19.30
2017-10-14T03:47:07.252Z,25.07
2017-10-14T03:49:33.442Z,22.30
2017-10-14T03:52:00.385Z,25.07
2017-10-14T03:54:27.359Z,17.77
2017-10-14T03:56:53.586Z,24.20
2017-10-14T03:59:19.773Z,17.20
2017-10-14T04:01:46.848Z,19.00
2017-10-14T04:04:13.774Z,16.63
2017-10-14T04:06:40.733Z,22.60
2017-10-14T04:09:06.912Z,18.77
2017-10-14T04:11:33.109Z,18.80
2017-10-14T04:13:59.326Z,19.40
2017-10-14T04:16:25.546Z,22.80
2017-10-14T04:18:51.739Z,18.20
2017-10-14T04:21:17.944Z,17.17
2017-10-14T04:23:44.140Z,17.20
2017-10-14T04:26:10.382Z,15.83
2017-10-14T04:28:36.573Z,15.87
2017-10-14T04:31:03.536Z,17.63
2017-10-14T04:33:29.734Z,20.87
2017-10-14T04:35:55.957Z,18.20
2017-10-14T04:38:22.156Z,18.63
2017-10-14T04:40:48.345Z,21.57
2017-10-14T04:43:14.593Z,17.03
2017-10-14T04:45:40.772Z,18.27
2017-10-14T04:48:06.981Z,17.00
2017-10-14T04:50:33.200Z,20.83
2017-10-14T04:52:59.409Z,38.77
2017-10-14T04:55:25.594Z,22.70
2017-10-14T04:57:52.567Z,19.80
2017-10-14T05:00:18.766Z,21.40
2017-10-14T05:02:45.711Z,20.57
2017-10-14T05:05:12.653Z,22.63
2017-10-14T05:07:39.658Z,21.80
2017-10-14T05:10:05.866Z,19.67
2017-10-14T05:12:32.080Z,18.03
2017-10-14T05:14:58.304Z,20.40
2017-10-14T05:17:24.552Z,25.93
2017-10-14T05:19:50.777Z,20.90
2017-10-14T05:22:17.032Z,25.00
2017-10-14T05:24:43.274Z,23.10
2017-10-14T05:27:09.465Z,23.80
2017-10-14T05:29:35.702Z,28.70
2017-10-14T05:32:01.901Z,25.50
2017-10-14T05:34:28.150Z,23.50
2017-10-14T05:36:54.328Z,28.20
2017-10-14T05:39:20.637Z,29.30
2017-10-14T05:41:46.826Z,29.20
2017-10-14T05:44:13.034Z,29.53
2017-10-14T05:46:39.337Z,26.50
2017-10-14T05:49:05.562Z,29.30
2017-10-14T05:51:31.753Z,24.90
2017-10-14T05:53:57.959Z,25.50
2017-10-14T05:56:24.144Z,29.80
2017-10-14T05:58:50.370Z,29.93
2017-10-14T06:01:16.590Z,26.30
2017-10-14T06:03:42.873Z,34.63
2017-10-14T06:06:09.063Z,33.87
2017-10-14T06:08:35.293Z,30.10
2017-10-14T06:11:01.714Z,30.90
2017-10-14T06:13:27.926Z,27.03
2017-10-14T06:15:54.117Z,28.70
2017-10-14T06:18:20.322Z,28.87
2017-10-14T06:20:47.349Z,29.27
2017-10-14T06:23:13.565Z,28.77
2017-10-14T06:25:39.766Z,33.07
2017-10-14T06:28:06.010Z,28.83
2017-10-14T06:30:32.238Z,28.70
2017-10-14T06:32:58.449Z,29.60
2017-10-14T06:35:24.628Z,29.43
2017-10-14T06:37:50.844Z,31.07
2017-10-14T06:40:17.055Z,27.07
2017-10-14T06:42:43.268Z,36.20
2017-10-14T06:45:09.487Z,30.10
2017-10-14T06:47:35.729Z,34.10
2017-10-14T06:50:01.921Z,31.33
2017-10-14T06:52:28.110Z,30.30
2017-10-14T06:54:54.318Z,34.20
2017-10-14T06:57:20.501Z,31.67
2017-10-14T06:59:47.460Z,25.63
2017-10-14T07:02:13.685Z,30.63
2017-10-14T07:04:39.897Z,26.57
2017-10-14T07:07:06.884Z,33.63
2017-10-14T07:09:33.149Z,30.67
2017-10-14T07:11:59.357Z,28.50
2017-10-14T07:14:25.561Z,26.30
2017-10-14T07:16:51.774Z,28.90
2017-10-14T07:19:17.986Z,26.80
2017-10-14T07:21:44.949Z,30.10
2017-10-14T07:24:11.241Z,32.10
2017-10-14T07:26:37.421Z,28.10
2017-10-14T07:29:03.691Z,35.13
2017-10-14T07:31:29.906Z,32.40
2017-10-14T07:33:56.103Z,30.23
2017-10-14T07:36:22.317Z,37.53
2017-10-14T07:38:48.573Z,33.57
2017-10-14T07:41:14.794Z,31.67
2017-10-14T07:43:40.981Z,31.57
2017-10-14T07:46:07.934Z,31.03
2017-10-14T07:48:34.153Z,33.30
2017-10-14T07:51:01.113Z,34.63
2017-10-14T07:53:27.318Z,34.40
2017-10-14T07:55:54.297Z,33.57
2017-10-14T07:58:20.517Z,33.13
2017-10-14T08:00:46.721Z,28.43
2017-10-14T08:03:13.646Z,34.57
2017-10-14T08:05:39.916Z,33.87
2017-10-14T08:08:06.097Z,30.37
2017-10-14T08:10:32.361Z,36.37
2017-10-14T08:12:59.304Z,36.00
2017-10-14T08:15:25.521Z,45.50
2017-10-14T08:17:52.771Z,34.37
2017-10-14T08:20:18.988Z,30.93
2017-10-14T08:22:45.238Z,31.40
2017-10-14T08:25:12.157Z,28.37
2017-10-14T08:27:38.363Z,34.83
2017-10-14T08:30:04.614Z,22.90
2017-10-14T08:32:31.034Z,29.07
2017-10-14T08:34:57.222Z,31.47
2017-10-14T08:37:23.463Z,25.40
2017-10-14T08:39:49.801Z,24.80
2017-10-14T08:42:16.140Z,24.83
2017-10-14T08:44:42.313Z,22.50
2017-10-14T08:47:12.392Z,20.87
2017-10-14T08:49:38.593Z,26.83
2017-10-14T08:52:04.809Z,22.40
2017-10-14T08:54:31.099Z,22.10
2017-10-14T08:56:57.318Z,21.10
2017-10-14T08:59:23.570Z,17.43
2017-10-14T09:01:50.540Z,20.07
2017-10-14T09:04:16.798Z,24.80
2017-10-14T09:06:43.038Z,20.13
2017-10-14T09:09:09.240Z,20.13
2017-10-14T09:11:35.536Z,21.03
2017-10-14T09:14:02.510Z,19.07
2017-10-14T09:16:28.855Z,18.30
2017-10-14T09:18:55.345Z,17.53
2017-10-14T09:21:22.336Z,19.80
2017-10-14T09:23:48.564Z,18.83
2017-10-14T09:26:14.824Z,16.97
2017-10-14T09:28:41.062Z,15.13
2017-10-14T09:31:07.269Z,20.67
2017-10-14T09:33:33.551Z,18.77
2017-10-14T09:35:59.740Z,15.90
2017-10-14T09:38:28.893Z,17.53
2017-10-14T09:40:55.150Z,16.53
2017-10-14T09:43:21.385Z,19.53
2017-10-14T09:45:47.617Z,15.77
2017-10-14T09:48:13.825Z,14.50
2017-10-14T09:50:40.099Z,16.17
2017-10-14T09:53:07.054Z,16.03
2017-10-14T09:55:33.989Z,12.57
2017-10-14T09:58:00.940Z,15.87
2017-10-14T10:00:27.954Z,11.53
2017-10-14T10:02:54.153Z,13.03
2017-10-14T10:05:20.338Z,13.20
2017-10-14T10:07:47.342Z,11.10
2017-10-14T10:10:13.551Z,15.80
2017-10-14T10:12:39.789Z,12.97
2017-10-14T10:15:05.986Z,9.73
2017-10-14T10:17:32.217Z,12.10
2017-10-14T10:19:58.430Z,12.07
2017-10-14T10:22:25.413Z,16.07
2017-10-14T10:24:51.638Z,11.00
2017-10-14T10:27:17.818Z,11.60
2017-10-14T10:29:44.787Z,11.83
2017-10-14T10:32:10.970Z,12.37
2017-10-14T10:34:37.184Z,11.93
2017-10-14T10:37:03.365Z,9.13
2017-10-14T10:39:29.680Z,11.53
2017-10-14T10:41:56.604Z,10.63
2017-10-14T10:44:22.823Z,9.60
2017-10-14T10:46:49.015Z,10.00
2017-10-14T10:49:15.216Z,10.27
2017-10-14T10:51:42.188Z,9.27
2017-10-14T10:54:08.429Z,10.53
2017-10-14T10:56:34.614Z,9.83
2017-10-14T10:59:01.569Z,23.40
2017-10-14T11:01:28.485Z,9.70
2017-10-14T11:03:54.670Z,5.90
2017-10-14T11:06:20.874Z,14.10
2017-10-14T11:08:47.098Z,9.80
2017-10-14T11:11:13.277Z,6.47
2017-10-14T11:13:39.478Z,9.60
2017-10-14T11:16:05.687Z,6.93
2017-10-14T11:18:31.870Z,10.77
2017-10-14T11:20:58.102Z,9.30
2017-10-14T11:23:25.065Z,9.73
2017-10-14T11:25:52.009Z,10.37
2017-10-14T11:28:18.964Z,6.07
2017-10-14T11:30:45.945Z,14.07
2017-10-14T11:33:12.141Z,11.37
2017-10-14T11:35:39.084Z,7.03
2017-10-14T11:38:05.276Z,9.90
2017-10-14T11:40:31.493Z,10.93
2017-10-14T11:42:57.689Z,5.57
2017-10-14T11:45:23.909Z,6.37
2017-10-14T11:47:50.091Z,7.80
2017-10-14T11:50:16.309Z,5.40
2017-10-14T11:52:42.501Z,4.80
2017-10-14T11:55:08.715Z,6.70
2017-10-14T11:57:34.905Z,5.70
2017-10-14T12:00:01.110Z,5.00
2017-10-14T12:02:27.329Z,13.70
2017-10-14T12:04:53.546Z,7.27
2017-10-14T12:07:19.728Z,10.03
2017-10-14T12:09:46.679Z,5.07
2017-10-14T12:12:13.614Z,6.83
2017-10-14T12:14:39.823Z,7.27
2017-10-14T12:17:06.019Z,10.43
2017-10-14T12:19:32.202Z,5.93
2017-10-14T12:21:59.160Z,4.07
2017-10-14T12:24:26.562Z,7.63
2017-10-14T12:26:52.803Z,5.93
2017-10-14T12:29:19.017Z,3.97
2017-10-14T12:31:45.233Z,4.40
2017-10-14T12:34:11.437Z,4.77
2017-10-14T12:36:37.647Z,8.63
2017-10-14T12:39:04.592Z,3.93
2017-10-14T12:41:31.551Z,4.70
2017-10-14T12:43:58.505Z,5.80
2017-10-14T12:46:24.734Z,3.40
2017-10-14T12:48:50.914Z,7.63
2017-10-14T12:51:17.175Z,3.20
2017-10-14T12:53:44.102Z,2.93
2017-10-14T12:56:10.319Z,5.33
2017-10-14T12:58:36.497Z,5.77
2017-10-14T13:01:02.715Z,4.57
2017-10-14T13:03:28.910Z,6.00
2017-10-14T13:05:55.109Z,7.73
2017-10-14T13:08:21.294Z,4.60
2017-10-14T13:10:48.241Z,4.93
2017-10-14T13:13:14.480Z,2.70
2017-10-14T13:15:40.678Z,3.97
2017-10-14T13:18:07.638Z,5.70
2017-10-14T13:20:33.813Z,11.80
2017-10-14T13:23:00.018Z,3.70
2017-10-14T13:25:26.205Z,3.90
2017-10-14T13:27:53.181Z,8.93
2017-10-14T13:30:19.503Z,6.60
2017-10-14T13:32:45.733Z,7.07
2017-10-14T13:35:11.942Z,5.13
2017-10-14T13:37:38.920Z,3.10
2017-10-14T13:40:05.143Z,8.93
2017-10-14T13:42:31.355Z,5.07
2017-10-14T13:44:57.590Z,6.40
2017-10-14T13:47:23.799Z,7.70
2017-10-14T13:49:50.741Z,5.47
2017-10-14T13:52:17.690Z,7.53
2017-10-14T13:54:44.643Z,8.07
2017-10-14T13:57:11.585Z,4.67
2017-10-14T13:59:37.782Z,4.83
2017-10-14T14:02:04.015Z,8.20
2017-10-14T14:04:30.229Z,5.17
2017-10-14T14:06:56.485Z,4.03
2017-10-14T14:09:23.469Z,6.37
2017-10-14T14:11:49.668Z,2.77
2017-10-14T14:14:16.650Z,4.83
2017-10-14T14:16:42.834Z,4.37
2017-10-14T14:19:09.778Z,6.00
2017-10-14T14:21:36.708Z,5.93
2017-10-14T14:24:02.909Z,2.53
2017-10-14T14:26:29.094Z,5.83
2017-10-14T14:28:55.361Z,3.07
2017-10-14T14:31:21.570Z,4.17
2017-10-14T14:33:47.797Z,3.77
2017-10-14T14:36:14.003Z,6.93
2017-10-14T14:38:40.978Z,2.33
2017-10-14T14:41:07.195Z,4.03
2017-10-14T14:43:33.409Z,4.43
2017-10-14T14:45:59.613Z,6.97
2017-10-14T14:48:25.828Z,3.50
2017-10-14T14:50:52.023Z,7.50
2017-10-14T14:53:18.226Z,3.83
2017-10-14T14:55:44.422Z,3.60
2017-10-14T14:58:10.633Z,3.63
2017-10-14T15:00:37.549Z,4.90
2017-10-14T15:03:03.761Z,3.97
2017-10-14T15:05:29.958Z,4.40
2017-10-14T15:07:56.900Z,4.37
2017-10-14T15:10:23.108Z,4.73
2017-10-14T15:12:49.292Z,4.93
2017-10-14T15:15:15.517Z,5.77
2017-10-14T15:17:41.723Z,3.93
2017-10-14T15:20:08.682Z,5.00
2017-10-14T15:22:34.857Z,7.20
2017-10-14T15:25:01.090Z,5.13
2017-10-14T15:27:27.285Z,3.97
2017-10-14T15:29:53.516Z,4.80
2017-10-14T15:32:19.705Z,3.10
2017-10-14T15:34:46.666Z,3.70
2017-10-14T15:37:12.882Z,4.93
2017-10-14T15:39:39.841Z,3.17
2017-10-14T15:42:06.761Z,4.47
2017-10-14T15:44:33.705Z,4.80
2017-10-14T15:47:00.629Z,3.20
2017-10-14T15:49:26.974Z,3.00
2017-10-14T15:51:53.157Z,8.17
2017-10-14T15:54:19.405Z,3.70
2017-10-14T15:56:45.641Z,8.10
2017-10-14T15:59:11.846Z,3.87
2017-10-14T16:01:38.052Z,3.80
2017-10-14T16:04:04.252Z,3.37
2017-10-14T16:06:31.186Z,4.00
2017-10-14T16:08:57.362Z,5.17
2017-10-14T16:11:23.744Z,3.27
2017-10-14T16:13:49.922Z,4.70
2017-10-14T16:16:16.125Z,11.73
2017-10-14T16:18:42.321Z,10.47
2017-10-14T16:21:08.538Z,3.03
2017-10-14T16:23:34.749Z,5.53
2017-10-14T16:26:00.953Z,5.20
2017-10-14T16:28:27.165Z,4.57
2017-10-14T16:30:53.405Z,12.00
2017-10-14T16:33:19.597Z,3.83
2017-10-14T16:35:45.809Z,4.10
2017-10-14T16:38:11.998Z,3.60
2017-10-14T16:40:38.207Z,3.07
2017-10-14T16:43:04.402Z,3.97
2017-10-14T16:45:30.598Z,4.57
2017-10-14T16:47:56.793Z,8.40
2017-10-14T16:50:23.024Z,6.33
2017-10-14T16:52:49.201Z,3.40
2017-10-14T16:55:15.378Z,5.87
2017-10-14T16:57:41.591Z,7.20
2017-10-14T17:00:08.541Z,5.90
2017-10-14T17:02:34.766Z,5.80
2017-10-14T17:05:00.953Z,5.23
2017-10-14T17:07:27.161Z,5.53
2017-10-14T17:09:53.338Z,6.90
2017-10-14T17:12:20.286Z,4.57
2017-10-14T17:14:47.205Z,5.73
2017-10-14T17:17:13.409Z,5.83
2017-10-14T17:19:39.601Z,8.23
2017-10-14T17:22:05.859Z,5.83
2017-10-14T17:24:32.050Z,16.00
2017-10-14T17:26:58.335Z,8.23
2017-10-14T17:29:25.710Z,19.27
2017-10-14T17:31:51.948Z,10.07
2017-10-14T17:34:18.868Z,7.23
2017-10-14T17:36:45.078Z,8.10
2017-10-14T17:39:11.265Z,9.27
2017-10-14T17:41:37.638Z,8.03
2017-10-14T17:44:03.815Z,6.23
2017-10-14T17:46:30.766Z,6.57
2017-10-14T17:48:56.945Z,5.60
2017-10-14T17:51:23.154Z,13.83
2017-10-14T17:53:49.364Z,9.57
2017-10-14T17:56:15.585Z,11.67
2017-10-14T17:58:41.788Z,5.10
2017-10-14T18:01:08.738Z,5.10
2017-10-14T18:03:35.661Z,8.23
2017-10-14T18:06:01.854Z,9.20
2017-10-14T18:08:28.061Z,9.23
2017-10-14T18:10:54.242Z,9.80
2017-10-14T18:13:20.453Z,8.30
2017-10-14T18:15:46.643Z,6.50
2017-10-14T18:18:12.873Z,7.40
2017-10-14T18:20:39.065Z,5.00
2017-10-14T18:23:05.318Z,11.53
2017-10-14T18:25:31.493Z,6.27
2017-10-14T18:27:57.702Z,13.03
2017-10-14T18:30:23.935Z,7.60
2017-10-14T18:32:50.137Z,9.53
2017-10-14T18:35:16.342Z,5.70
2017-10-14T18:37:43.271Z,7.53
2017-10-14T18:40:09.485Z,9.43
2017-10-14T18:42:35.671Z,8.13
2017-10-14T18:45:01.880Z,8.80
2017-10-14T18:47:28.816Z,7.00
2017-10-14T18:49:55.769Z,9.37
2017-10-14T18:52:22.681Z,8.73
2017-10-14T18:54:48.886Z,6.47
2017-10-14T18:57:15.073Z,5.83
2017-10-14T18:59:41.273Z,12.73
2017-10-14T19:02:07.466Z,8.37
2017-10-14T19:04:33.696Z,8.30
2017-10-14T19:06:59.883Z,8.93
2017-10-14T19:09:26.071Z,12.43
2017-10-14T19:11:52.296Z,9.23
2017-10-14T19:14:18.497Z,7.20
2017-10-14T19:16:44.697Z,11.17
2017-10-14T19:19:10.885Z,9.30
2017-10-14T19:21:37.225Z,8.70
2017-10-14T19:24:03.410Z,9.80
2017-10-14T19:26:29.637Z,8.63
2017-10-14T19:28:55.814Z,12.03
2017-10-14T19:31:22.788Z,9.47
2017-10-14T19:33:48.973Z,9.37
2017-10-14T19:36:15.173Z,7.00
2017-10-14T19:38:41.371Z,8.17
2017-10-14T19:41:07.574Z,7.07
2017-10-14T19:43:34.505Z,7.60
2017-10-14T19:46:00.727Z,8.43
2017-10-14T19:48:26.921Z,11.13
2017-10-14T19:50:53.121Z,9.37
2017-10-14T19:53:19.324Z,10.10
2017-10-14T19:55:46.272Z,13.00
2017-10-14T19:58:13.225Z,12.73
2017-10-14T20:00:40.186Z,14.93
2017-10-14T20:03:06.409Z,16.07
2017-10-14T20:05:32.597Z,15.47
2017-10-14T20:07:58.821Z,17.40
2017-10-14T20:10:25.006Z,14.10
2017-10-14T20:12:51.218Z,12.83
2017-10-14T20:15:17.417Z,18.97
2017-10-14T20:17:43.633Z,14.47
2017-10-14T20:20:09.829Z,17.93
2017-10-14T20:22:36.065Z,17.53
2017-10-14T20:25:02.278Z,13.23
2017-10-14T20:27:28.646Z,20.13
2017-10-14T20:29:54.896Z,15.60
2017-10-14T20:32:21.113Z,17.10
2017-10-14T20:34:47.394Z,21.10
2017-10-14T20:37:13.600Z,20.57
2017-10-14T20:39:40.540Z,22.70
2017-10-14T20:42:07.521Z,23.07
2017-10-14T20:44:33.710Z,21.10
2017-10-14T20:46:59.926Z,23.97
2017-10-14T20:49:26.153Z,25.13
2017-10-14T20:51:52.365Z,19.57
2017-10-14T20:54:18.558Z,22.70
2017-10-14T20:56:44.772Z,18.67
2017-10-14T20:59:10.973Z,21.33
2017-10-14T21:01:37.924Z,19.10
2017-10-14T21:04:04.869Z,19.23
2017-10-14T21:06:31.826Z,16.80
2017-10-14T21:08:58.018Z,19.77
2017-10-14T21:11:24.228Z,16.17
2017-10-14T21:13:50.431Z,21.33
2017-10-14T21:16:16.650Z,16.07
2017-10-14T21:18:42.838Z,20.57
2017-10-14T21:21:09.074Z,20.73
2017-10-14T21:23:36.002Z,15.00
2017-10-14T21:26:02.210Z,17.00
2017-10-14T21:28:28.415Z,17.47
2017-10-14T21:30:54.632Z,23.40
2017-10-14T21:33:20.840Z,19.40
2017-10-14T21:35:54.593Z,19.07
2017-10-14T21:38:20.802Z,21.73
2017-10-14T21:40:47.450Z,19.87
2017-10-14T21:43:13.681Z,16.53
2017-10-14T21:45:39.867Z,14.47
2017-10-14T21:48:06.905Z,17.67
2017-10-14T21:50:33.878Z,17.10
2017-10-14T21:53:00.088Z,17.03
2017-10-14T21:55:27.033Z,19.10
2017-10-14T21:57:53.972Z,15.67
2017-10-14T22:00:20.909Z,24.27
2017-10-14T22:02:47.940Z,18.90
2017-10-14T22:05:14.916Z,16.40
2017-10-14T22:07:41.838Z,18.07
2017-10-14T22:10:08.069Z,13.87
2017-10-14T22:12:34.269Z,13.00
2017-10-14T22:15:00.513Z,14.30
2017-10-14T22:17:26.725Z,11.90
2017-10-14T22:19:52.936Z,13.30
2017-10-14T22:22:19.134Z,12.93
2017-10-14T22:24:45.349Z,14.60
2017-10-14T22:27:12.268Z,19.90
2017-10-14T22:29:38.472Z,15.67
2017-10-14T22:32:04.693Z,18.43
2017-10-14T22:34:32.880Z,14.77
2017-10-14T22:36:59.073Z,14.30
2017-10-14T22:39:25.274Z,12.13
2017-10-14T22:41:52.231Z,13.40
2017-10-14T22:44:18.469Z,19.20
2017-10-14T22:46:44.687Z,19.10
2017-10-14T22:49:11.613Z,15.03
2017-10-14T22:51:38.561Z,19.33
2017-10-14T22:54:05.498Z,25.37
2017-10-14T22:56:33.290Z,16.87
2017-10-14T22:58:59.497Z,18.93
2017-10-14T23:01:26.444Z,19.47
2017-10-14T23:03:53.365Z,17.90
2017-10-14T23:06:19.586Z,16.47
2017-10-14T23:08:45.794Z,22.30
2017-10-14T23:11:12.001Z,20.13
2017-10-14T23:13:38.185Z,16.13
2017-10-14T23:16:04.422Z,20.43
2017-10-14T23:18:30.658Z,19.37
2017-10-14T23:20:57.615Z,18.20
2017-10-14T23:23:24.541Z,18.27
2017-10-14T23:25:50.770Z,17.30
2017-10-14T23:28:16.985Z,15.30
2017-10-14T23:30:43.218Z,17.37
2017-10-14T23:33:09.405Z,17.43
2017-10-14T23:35:35.659Z,15.77
2017-10-14T23:38:01.864Z,17.30
2017-10-14T23:40:28.066Z,15.80
2017-10-14T23:42:54.257Z,15.73
2017-10-14T23:45:20.470Z,14.10
2017-10-14T23:47:46.678Z,15.10
2017-10-14T23:50:12.920Z,14.60
2017-10-14T23:52:39.121Z,13.07
2017-10-14T23:55:05.325Z,15.00
2017-10-14T23:57:32.250Z,23.37
2017-10-14T23:59:59.186Z,19.90
